Time;durP1;ratioP1;P1;durP2;ratioP2;P2;SDS_P1;SDS_P2;PMS_P1;PMS_P2;Temp;Humidity;BMP_temperature;BMP_pressure;BME280_temperature;BME280_humidity;BME280_pressure;Samples;Min_cycle;Max_cycle;Signal;HPM_P1;HPM_P2
2023/01/19 00:00:39;;;;;;;10.00;8.40;;;;;;;;;;102925;1327;39317;-38
2023/01/19 00:03:27;;;;;;;9.40;8.00;;;;;;;;;;102826;1331;41229;-38
2023/01/19 00:06:04;;;;;;;9.10;8.10;;;;;;;;;;102818;1340;44181;-38
2023/01/19 00:08:38;;;;;;;9.20;8.20;;;;;;;;;;102812;1331;42704;-38
2023/01/19 00:11:17;;;;;;;9.40;8.10;;;;;;;;;;103161;1327;39636;-38
2023/01/19 00:13:49;;;;;;;9.90;8.00;;;;;;;;;;103271;1327;41185;-38
2023/01/19 00:16:24;;;;;;;9.90;8.20;;;;;;;;;;103257;1327;43851;-37
2023/01/19 00:18:57;;;;;;;10.20;8.50;;;;;;;;;;103286;1327;42995;-38
2023/01/19 00:21:30;;;;;;;9.10;7.80;;;;;;;;;;102858;1334;39417;-38
2023/01/19 00:24:03;;;;;;;8.90;7.90;;;;;;;;;;102790;1333;41043;-37
2023/01/19 00:26:34;;;;;;;9.60;7.90;;;;;;;;;;102821;1331;44187;-38
2023/01/19 00:29:05;;;;;;;9.40;7.80;;;;;;;;;;102782;1337;42773;-38
2023/01/19 00:31:36;;;;;;;9.30;8.10;;;;;;;;;;103158;1327;39392;-37
2023/01/19 00:34:10;;;;;;;8.80;7.90;;;;;;;;;;103273;1327;42565;-37
2023/01/19 00:36:41;;;;;;;9.00;7.80;;;;;;;;;;103262;1327;44167;-38
2023/01/19 00:39:11;;;;;;;9.80;8.20;;;;;;;;;;103268;1327;42506;-37
2023/01/19 00:44:32;;;;;;;8.80;7.80;;;;;;;;;;102796;1333;41190;-38
2023/01/19 00:47:03;;;;;;;9.70;8.00;;;;;;;;;;102804;1331;45600;-38
2023/01/19 00:49:34;;;;;;;9.40;7.60;;;;;;;;;;102800;1331;42663;-37
2023/01/19 00:52:09;;;;;;;9.20;8.10;;;;;;;;;;103146;1327;39486;-37
2023/01/19 00:54:45;;;;;;;9.40;7.70;;;;;;;;;;103262;1327;41237;-38
2023/01/19 00:57:18;;;;;;;9.40;7.80;;;;;;;;;;103246;1327;43926;-37
2023/01/19 00:59:51;;;;;;;9.20;7.50;;;;;;;;;;103268;1327;42632;-38
2023/01/19 01:02:26;;;;;;;9.50;8.20;;;;;;;;;;102812;1338;40589;-37
2023/01/19 01:05:01;;;;;;;9.40;8.20;;;;;;;;;;102771;1331;40935;-38
2023/01/19 01:07:33;;;;;;;10.10;8.30;;;;;;;;;;102822;1331;45519;-38
2023/01/19 01:10:07;;;;;;;8.90;8.00;;;;;;;;;;102790;1334;42716;-38
2023/01/19 01:12:38;;;;;;;9.70;8.20;;;;;;;;;;103401;1327;39308;-38
2023/01/19 01:15:14;;;;;;;9.40;7.80;;;;;;;;;;103489;1328;41212;-38
2023/01/19 01:17:48;;;;;;;8.60;7.70;;;;;;;;;;103506;1328;44157;-37
2023/01/19 01:20:20;;;;;;;9.60;8.30;;;;;;;;;;103493;1326;42868;-37
2023/01/19 01:22:55;;;;;;;9.40;8.20;;;;;;;;;;102850;1331;39326;-38
2023/01/19 01:25:29;;;;;;;9.10;7.80;;;;;;;;;;102805;1331;41010;-38
2023/01/19 01:28:01;;;;;;;9.40;8.00;;;;;;;;;;102844;1331;44025;-38
2023/01/19 01:30:38;;;;;;;9.50;7.80;;;;;;;;;;102790;1333;43539;-37
2023/01/19 01:33:10;;;;;;;9.70;8.30;;;;;;;;;;103072;1327;39341;-37
2023/01/19 01:35:40;;;;;;;9.20;8.00;;;;;;;;;;102816;1331;41006;-38
2023/01/19 01:38:10;;;;;;;8.80;7.70;;;;;;;;;;102808;1333;44443;-37
2023/01/19 01:40:42;;;;;;;9.10;7.80;;;;;;;;;;102791;1331;42588;-37
2023/01/19 01:43:16;;;;;;;;;;;;;;;;;;103274;1327;39325;-37
2023/01/19 01:45:53;;;;;;;9.60;7.90;;;;;;;;;;103259;1327;41188;-37
2023/01/19 01:48:29;;;;;;;9.00;7.80;;;;;;;;;;103284;1328;43882;-38
2023/01/19 01:51:23;;;;;;;10.20;8.60;;;;;;;;;;103114;1327;42549;-38
2023/01/19 01:54:16;;;;;;;9.30;8.10;;;;;;;;;;102760;1331;44857;-37
2023/01/19 01:56:51;;;;;;;10.70;8.60;;;;;;;;;;102812;1331;41308;-38
2023/01/19 01:59:25;;;;;;;9.60;8.00;;;;;;;;;;102827;1331;44810;-37
2023/01/19 02:04:57;;;;;;;10.00;7.90;;;;;;;;;;103265;1327;39289;-37
2023/01/19 02:13:21;;;;;;;8.90;7.40;;;;;;;;;;102991;1328;42657;-37
2023/01/19 02:15:57;;;;;;;9.20;8.20;;;;;;;;;;102206;1331;896653;-37
2023/01/19 02:18:30;;;;;;;9.30;8.00;;;;;;;;;;102809;1331;41002;-37
2023/01/19 02:21:10;;;;;;;9.20;8.00;;;;;;;;;;102709;1331;175896;-37
2023/01/19 02:23:44;;;;;;;9.60;8.30;;;;;;;;;;103093;1327;42701;-37
2023/01/19 02:26:20;;;;;;;10.20;8.00;;;;;;;;;;103298;1327;39304;-37
2023/01/19 02:28:56;;;;;;;10.20;8.50;;;;;;;;;;103296;1327;41146;-37
2023/01/19 02:31:29;;;;;;;9.30;8.20;;;;;;;;;;103276;1327;46412;-37
2023/01/19 02:34:04;;;;;;;9.80;8.10;;;;;;;;;;102832;1331;196032;-37
2023/01/19 02:36:53;;;;;;;9.50;8.30;;;;;;;;;;102835;1333;39152;-38
2023/01/19 02:39:33;;;;;;;9.50;8.50;;;;;;;;;;102831;1331;41211;-37
2023/01/19 02:42:07;;;;;;;10.20;8.50;;;;;;;;;;102818;1331;43999;-37
2023/01/19 02:44:39;;;;;;;9.00;7.80;;;;;;;;;;102958;1332;42917;-37
2023/01/19 02:47:13;;;;;;;9.70;8.30;;;;;;;;;;103291;1334;39310;-37
2023/01/19 02:49:44;;;;;;;8.80;7.80;;;;;;;;;;103283;1327;41080;-37
2023/01/19 02:52:20;;;;;;;8.80;7.70;;;;;;;;;;103293;1327;44538;-37
2023/01/19 02:55:07;;;;;;;9.30;7.90;;;;;;;;;;102810;1327;42949;-37
2023/01/19 02:57:55;;;;;;;9.40;8.10;;;;;;;;;;102827;1335;39435;-37
2023/01/19 03:00:38;;;;;;;9.10;7.70;;;;;;;;;;102860;1332;41125;-37
2023/01/19 03:03:28;;;;;;;9.40;8.00;;;;;;;;;;102816;1327;44426;-38
2023/01/19 03:06:06;;;;;;;9.30;8.10;;;;;;;;;;103284;1327;42761;-37
2023/01/19 03:08:49;;;;;;;9.80;8.00;;;;;;;;;;103253;1327;39457;-37
2023/01/19 03:11:20;;;;;;;9.30;8.20;;;;;;;;;;103134;1327;175513;-37
2023/01/19 03:13:54;;;;;;;9.40;8.10;;;;;;;;;;103138;1327;46010;-38
2023/01/19 03:16:32;;;;;;;9.60;8.10;;;;;;;;;;102782;1331;42947;-37
2023/01/19 03:19:10;;;;;;;9.20;7.70;;;;;;;;;;102795;1331;39161;-38
2023/01/19 03:21:44;;;;;;;9.10;7.90;;;;;;;;;;102852;1331;40922;-37
2023/01/19 03:24:18;;;;;;;9.50;8.00;;;;;;;;;;102939;1327;44069;-37
2023/01/19 03:26:56;;;;;;;9.10;8.10;;;;;;;;;;103247;1327;44067;-38
2023/01/19 03:29:35;;;;;;;9.20;7.80;;;;;;;;;;103243;1327;39545;-37
2023/01/19 03:32:15;;;;;;;9.10;8.00;;;;;;;;;;103249;1327;41162;-37
2023/01/19 03:34:48;;;;;;;8.80;7.50;;;;;;;;;;102992;1328;43996;-37
2023/01/19 03:37:20;;;;;;;9.00;7.80;;;;;;;;;;102684;1331;175524;-37
2023/01/19 03:39:54;;;;;;;9.00;7.50;;;;;;;;;;102817;1331;40042;-37
2023/01/19 03:42:29;;;;;;;9.70;8.20;;;;;;;;;;102786;1332;41330;-37
2023/01/19 03:45:02;;;;;;;9.50;7.90;;;;;;;;;;103134;1327;44810;-37
2023/01/19 03:47:33;;;;;;;9.10;8.00;;;;;;;;;;103510;1327;45068;-37
2023/01/19 03:50:13;;;;;;;10.10;8.10;;;;;;;;;;103051;1327;175870;-37
2023/01/19 03:52:48;;;;;;;9.40;7.80;;;;;;;;;;103475;1327;40883;-37
2023/01/19 03:55:25;;;;;;;9.90;7.80;;;;;;;;;;103055;1331;43909;-37
2023/01/19 03:57:55;;;;;;;9.10;7.80;;;;;;;;;;102773;1331;42685;-37
2023/01/19 04:00:26;;;;;;;9.20;7.80;;;;;;;;;;102826;1331;39629;-37
2023/01/19 04:02:56;;;;;;;9.60;8.30;;;;;;;;;;102809;1333;41056;-37
2023/01/19 04:05:32;;;;;;;8.80;7.80;;;;;;;;;;103168;1327;43952;-37
2023/01/19 04:08:02;;;;;;;9.40;7.60;;;;;;;;;;103542;1327;42524;-37
2023/01/19 04:10:35;;;;;;;9.40;7.70;;;;;;;;;;103512;1327;39282;-37
2023/01/19 04:13:06;;;;;;;10.00;8.10;;;;;;;;;;103426;1328;175897;-37
2023/01/19 04:15:39;;;;;;;8.60;7.40;;;;;;;;;;103128;1331;43846;-37
2023/01/19 04:18:10;;;;;;;10.20;8.00;;;;;;;;;;102780;1334;42642;-37
2023/01/19 04:20:40;;;;;;;9.50;7.80;;;;;;;;;;102812;1331;39544;-37
2023/01/19 04:23:11;;;;;;;9.50;8.20;;;;;;;;;;102812;1331;42425;-37
2023/01/19 04:25:41;;;;;;;9.60;8.30;;;;;;;;;;103073;1327;44079;-37
2023/01/19 04:28:11;;;;;;;9.80;7.90;;;;;;;;;;103491;1326;42855;-37
2023/01/19 04:30:46;;;;;;;9.00;7.70;;;;;;;;;;103396;1326;175556;-37
2023/01/19 04:33:17;;;;;;;9.60;7.80;;;;;;;;;;103464;1328;40721;-37
2023/01/19 04:35:53;;;;;;;9.00;7.80;;;;;;;;;;103165;1333;45126;-37
2023/01/19 04:38:27;;;;;;;9.30;7.90;;;;;;;;;;102805;1331;43062;-37
2023/01/19 04:40:57;;;;;;;9.30;7.70;;;;;;;;;;102764;1334;39485;-37
2023/01/19 04:43:30;;;;;;;9.30;7.70;;;;;;;;;;102792;1331;41359;-37
2023/01/19 04:46:02;;;;;;;9.60;8.30;;;;;;;;;;102809;1327;337458;-37
2023/01/19 04:48:38;;;;;;;9.60;8.10;;;;;;;;;;103493;1328;43023;-37
2023/01/19 04:51:13;;;;;;;9.00;7.70;;;;;;;;;;103497;1327;40845;-37
2023/01/19 04:53:48;;;;;;;9.60;7.80;;;;;;;;;;103507;1327;40876;-37
2023/01/19 04:56:20;;;;;;;9.60;7.70;;;;;;;;;;103135;1326;45500;-37
2023/01/19 04:58:51;;;;;;;9.70;8.00;;;;;;;;;;102807;1334;42733;-37
2023/01/19 05:01:21;;;;;;;9.50;8.00;;;;;;;;;;102797;1331;39361;-37
2023/01/19 05:03:53;;;;;;;9.50;7.50;;;;;;;;;;102780;1331;40709;-37
2023/01/19 05:06:24;;;;;;;9.90;7.70;;;;;;;;;;103057;1327;44097;-37
2023/01/19 05:08:56;;;;;;;8.60;7.30;;;;;;;;;;103479;1326;42660;-37
2023/01/19 05:11:26;;;;;;;10.10;8.30;;;;;;;;;;103499;1326;40722;-37
2023/01/19 05:13:59;;;;;;;9.30;7.80;;;;;;;;;;103484;1327;41085;-37
2023/01/19 05:16:33;;;;;;;9.90;8.00;;;;;;;;;;103194;1338;43423;-37
2023/01/19 05:19:04;;;;;;;9.80;8.20;;;;;;;;;;102808;1332;42603;-37
2023/01/19 05:21:36;;;;;;;9.10;7.70;;;;;;;;;;102799;1338;39254;-37
2023/01/19 05:24:09;;;;;;;9.60;7.40;;;;;;;;;;102833;1331;42161;-37
2023/01/19 05:26:44;;;;;;;9.90;8.00;;;;;;;;;;102924;1327;43908;-37
2023/01/19 05:29:17;;;;;;;9.10;7.40;;;;;;;;;;102826;1331;42669;-37
2023/01/19 05:31:48;;;;;;;8.80;7.60;;;;;;;;;;102761;1331;39313;-37
2023/01/19 05:34:21;;;;;;;9.90;7.70;;;;;;;;;;102779;1331;41122;-37
2023/01/19 05:36:54;;;;;;;9.50;7.70;;;;;;;;;;102921;1327;44123;-37
2023/01/19 05:39:25;;;;;;;8.90;7.60;;;;;;;;;;103257;1327;44348;-37
2023/01/19 05:41:56;;;;;;;9.30;7.80;;;;;;;;;;103242;1328;40539;-37
2023/01/19 05:44:26;;;;;;;9.40;7.50;;;;;;;;;;102617;1327;894974;-37
2023/01/19 05:46:57;;;;;;;9.60;7.70;;;;;;;;;;103116;1331;44282;-37
2023/01/19 05:49:30;;;;;;;9.10;7.40;;;;;;;;;;102795;1331;42927;-37
2023/01/19 05:52:00;;;;;;;9.40;7.60;;;;;;;;;;102813;1331;39817;-38
2023/01/19 05:54:30;;;;;;;8.80;7.50;;;;;;;;;;102838;1331;41030;-38
2023/01/19 05:57:01;;;;;;;10.00;7.70;;;;;;;;;;102905;1328;45227;-38
2023/01/19 05:59:32;;;;;;;9.60;7.50;;;;;;;;;;103286;1327;42653;-38
2023/01/19 06:02:03;;;;;;;9.50;7.90;;;;;;;;;;103280;1327;39513;-38
2023/01/19 06:04:36;;;;;;;9.90;7.90;;;;;;;;;;103245;1327;41162;-38
2023/01/19 06:07:06;;;;;;;9.40;7.60;;;;;;;;;;103247;1326;44044;-37
2023/01/19 06:09:39;;;;;;;9.50;7.70;;;;;;;;;;102758;1327;894148;-37
2023/01/19 06:12:13;;;;;;;9.00;7.40;;;;;;;;;;103485;1327;40446;-37
2023/01/19 06:14:44;;;;;;;10.10;8.00;;;;;;;;;;103506;1327;41167;-37
2023/01/19 06:17:19;;;;;;;9.50;7.50;;;;;;;;;;103346;1331;44035;-37
2023/01/19 06:19:56;;;;;;;9.50;7.60;;;;;;;;;;102768;1331;43883;-37
2023/01/19 06:22:30;;;;;;;9.50;7.60;;;;;;;;;;102819;1331;39198;-37
2023/01/19 06:25:04;;;;;;;8.60;7.60;;;;;;;;;;102775;1331;41195;-37
2023/01/19 06:27:38;;;;;;;9.70;7.50;;;;;;;;;;102935;1327;43936;-37
2023/01/19 06:30:12;;;;;;;9.50;7.70;;;;;;;;;;103393;1328;42599;-37
2023/01/19 06:32:43;;;;;;;9.50;7.60;;;;;;;;;;102794;1331;39459;-37
2023/01/19 06:35:14;;;;;;;8.60;7.00;;;;;;;;;;102794;1331;42252;-38
2023/01/19 06:37:45;;;;;;;9.40;7.30;;;;;;;;;;102890;1327;44686;-37
2023/01/19 06:40:16;;;;;;;9.10;7.00;;;;;;;;;;103215;1327;42869;-37
2023/01/19 06:42:49;;;;;;;9.50;7.50;;;;;;;;;;103256;1327;39498;-37
2023/01/19 06:45:20;;;;;;;8.50;7.10;;;;;;;;;;103248;1327;41296;-37
2023/01/19 06:47:51;;;;;;;9.70;7.80;;;;;;;;;;103133;1327;44446;-37
2023/01/19 06:50:24;;;;;;;8.80;7.20;;;;;;;;;;102817;1331;42894;-37
2023/01/19 06:52:59;;;;;;;9.90;7.70;;;;;;;;;;102803;1337;39509;-37
2023/01/19 06:55:30;;;;;;;8.40;7.00;;;;;;;;;;102779;1333;41153;-37
2023/01/19 06:58:03;;;;;;;8.70;7.10;;;;;;;;;;102886;1327;44327;-37
2023/01/19 07:00:34;;;;;;;9.00;7.00;;;;;;;;;;103277;1327;175521;-37
2023/01/19 07:03:06;;;;;;;8.60;7.10;;;;;;;;;;103333;1328;39377;-38
2023/01/19 07:05:39;;;;;;;8.60;7.10;;;;;;;;;;103262;1328;175819;-38
2023/01/19 07:08:09;;;;;;;8.60;7.00;;;;;;;;;;103182;1327;44065;-37
2023/01/19 07:10:39;;;;;;;8.80;7.10;;;;;;;;;;102809;1333;42778;-37
2023/01/19 07:13:32;;;;;;;9.00;6.90;;;;;;;;;;102805;1331;39432;-37
2023/01/19 07:16:08;;;;;;;9.40;7.20;;;;;;;;;;102804;1331;41062;-37
2023/01/19 07:18:39;;;;;;;8.30;6.90;;;;;;;;;;102914;1327;44356;-37
2023/01/19 07:21:15;;;;;;;8.90;7.10;;;;;;;;;;103231;1327;42749;-37
2023/01/19 07:23:48;;;;;;;9.40;6.90;;;;;;;;;;103118;1327;40868;-37
2023/01/19 07:26:20;;;;;;;8.80;7.00;;;;;;;;;;103289;1328;43660;-37
2023/01/19 07:28:54;;;;;;;9.00;7.20;;;;;;;;;;103128;1331;45837;-37
2023/01/19 07:31:24;;;;;;;8.40;6.50;;;;;;;;;;102771;1343;42901;-37
2023/01/19 07:33:59;;;;;;;8.40;6.70;;;;;;;;;;102814;1331;39575;-37
2023/01/19 07:36:32;;;;;;;9.20;7.00;;;;;;;;;;102792;1331;41104;-37
2023/01/19 07:39:09;;;;;;;8.50;6.90;;;;;;;;;;102904;1327;44250;-37
2023/01/19 07:41:49;;;;;;;9.20;7.20;;;;;;;;;;103214;1327;42912;-37
2023/01/19 07:44:19;;;;;;;8.70;7.00;;;;;;;;;;103275;1327;39493;-37
2023/01/19 07:46:52;;;;;;;9.00;6.90;;;;;;;;;;103301;1327;42326;-38
2023/01/19 07:49:30;;;;;;;9.40;7.30;;;;;;;;;;103094;1332;44506;-38
2023/01/19 07:52:03;;;;;;;9.90;7.10;;;;;;;;;;102799;1331;43047;-38
2023/01/19 07:54:33;;;;;;;9.40;7.30;;;;;;;;;;102822;1331;39646;-38
2023/01/19 07:57:06;;;;;;;8.90;7.10;;;;;;;;;;102804;1331;42615;-38
2023/01/19 07:59:37;;;;;;;9.50;7.30;;;;;;;;;;102935;1327;44154;-38
2023/01/19 08:02:11;;;;;;;9.50;7.30;;;;;;;;;;103237;1327;42781;-38
2023/01/19 08:04:41;;;;;;;;;;;;;;;;;;103309;1327;39647;-37
2023/01/19 08:07:11;;;;;;;9.50;6.90;;;;;;;;;;103275;1327;40722;-38
2023/01/19 08:09:51;;;;;;;8.90;7.00;;;;;;;;;;103088;1328;45398;-39
2023/01/19 08:12:26;;;;;;;8.90;7.10;;;;;;;;;;102776;1331;42818;-39
2023/01/19 08:15:02;;;;;;;8.70;6.90;;;;;;;;;;102776;1337;39457;-39
2023/01/19 08:17:37;;;;;;;9.30;6.90;;;;;;;;;;102784;1331;41403;-39
2023/01/19 08:20:15;;;;;;;8.90;7.10;;;;;;;;;;102853;1327;175749;-39
2023/01/19 08:22:58;;;;;;;8.80;6.80;;;;;;;;;;103274;1327;42763;-40
2023/01/19 08:25:34;;;;;;;9.70;6.70;;;;;;;;;;103149;1327;175723;-40
2023/01/19 08:28:06;;;;;;;8.60;6.60;;;;;;;;;;103193;1327;41119;-39
2023/01/19 08:30:39;;;;;;;9.00;7.10;;;;;;;;;;103324;1327;45790;-44
2023/01/19 08:33:17;;;;;;;8.50;6.70;;;;;;;;;;102818;1331;43279;-38
2023/01/19 08:35:50;;;;;;;9.30;6.60;;;;;;;;;;102810;1333;39708;-40
2023/01/19 08:38:25;;;;;;;9.20;7.00;;;;;;;;;;102779;1333;41524;-42
2023/01/19 08:41:02;;;;;;;9.30;6.80;;;;;;;;;;102739;1329;175762;-39
2023/01/19 08:43:35;;;;;;;9.20;6.70;;;;;;;;;;103086;1331;42814;-40
2023/01/19 08:46:09;;;;;;;8.40;6.90;;;;;;;;;;103143;1327;175461;-39
2023/01/19 08:48:44;;;;;;;8.60;6.80;;;;;;;;;;103271;1327;41628;-37
2023/01/19 08:51:17;;;;;;;8.80;6.70;;;;;;;;;;102930;1331;44311;-39
2023/01/19 08:53:49;;;;;;;8.30;6.40;;;;;;;;;;102639;1334;43592;-43
2023/01/19 08:56:27;;;;;;;8.80;7.00;;;;;;;;;;102787;1331;39685;-38
2023/01/19 08:59:10;;;;;;;9.40;6.80;;;;;;;;;;102751;1335;41292;-39
2023/01/19 09:01:49;;;;;;;9.50;6.60;;;;;;;;;;103064;1327;44629;-39
2023/01/19 09:04:19;;;;;;;8.70;6.70;;;;;;;;;;103260;1327;42888;-38
2023/01/19 09:06:48;;;;;;;9.90;6.80;;;;;;;;;;103233;1327;39708;-39
2023/01/19 09:09:23;;;;;;;8.10;6.20;;;;;;;;;;103229;1327;40857;-39
2023/01/19 09:11:55;;;;;;;7.90;6.40;;;;;;;;;;102877;1334;44427;-38
2023/01/19 09:14:27;;;;;;;;;;;;;;;;;;102814;1340;43071;-39
2023/01/19 09:16:58;;;;;;;8.10;6.20;;;;;;;;;;102763;1331;39589;-39
2023/01/19 09:19:30;;;;;;;8.80;6.30;;;;;;;;;;102762;1331;42695;-38
2023/01/19 09:22:00;;;;;;;7.60;6.20;;;;;;;;;;103035;1328;45299;-38
2023/01/19 09:24:30;;;;;;;8.10;6.10;;;;;;;;;;103221;1328;42673;-38
2023/01/19 09:27:05;;;;;;;8.20;5.90;;;;;;;;;;103230;1328;38593;-39
2023/01/19 09:29:38;;;;;;;8.10;6.00;;;;;;;;;;103177;1327;41525;-39
2023/01/19 09:32:10;;;;;;;7.70;6.20;;;;;;;;;;102843;1331;44312;-39
2023/01/19 09:34:45;;;;;;;8.70;5.90;;;;;;;;;;101965;1331;895608;-39
2023/01/19 09:37:21;;;;;;;8.20;6.10;;;;;;;;;;102738;1331;39648;-39
2023/01/19 09:39:54;;;;;;;8.00;6.20;;;;;;;;;;102725;1334;41553;-41
2023/01/19 09:42:37;;;;;;;8.60;6.10;;;;;;;;;;102961;1331;44538;-43
2023/01/19 09:45:15;;;;;;;8.60;6.00;;;;;;;;;;103266;1327;42968;-39
2023/01/19 09:47:49;;;;;;;8.60;7.10;;;;;;;;;;103197;1331;39547;-39
2023/01/19 09:50:28;;;;;;;8.60;6.90;;;;;;;;;;103102;1330;41111;-39
2023/01/19 09:53:13;;;;;;;8.10;6.20;;;;;;;;;;102860;1333;43982;-41
2023/01/19 09:55:46;;;;;;;8.70;6.70;;;;;;;;;;102818;1331;43030;-40
2023/01/19 09:58:20;;;;;;;9.20;6.90;;;;;;;;;;102801;1337;40704;-42
2023/01/19 10:01:02;;;;;;;8.10;6.40;;;;;;;;;;102794;1331;41120;-39
2023/01/19 10:03:42;;;;;;;7.90;6.30;;;;;;;;;;103345;1328;50973;-40
2023/01/19 10:06:21;;;;;;;8.40;6.70;;;;;;;;;;103237;1327;44005;-41
2023/01/19 10:09:04;;;;;;;8.80;6.90;;;;;;;;;;103235;1327;39526;-41
2023/01/19 10:11:45;;;;;;;8.90;7.10;;;;;;;;;;103077;1327;175761;-41
2023/01/19 10:14:34;;;;;;;8.40;6.50;;;;;;;;;;102800;1334;45854;-38
2023/01/19 10:17:19;;;;;;;9.30;7.10;;;;;;;;;;102762;1334;44394;-41
2023/01/19 10:19:58;;;;;;;7.90;6.30;;;;;;;;;;102775;1334;40774;-40
2023/01/19 10:22:33;;;;;;;8.40;6.30;;;;;;;;;;102851;1331;41222;-41
2023/01/19 10:25:20;;;;;;;7.70;6.00;;;;;;;;;;103098;1330;46108;-41
2023/01/19 10:27:52;;;;;;;7.00;5.50;;;;;;;;;;103092;1331;44256;-38
2023/01/19 10:30:27;;;;;;;8.50;6.00;;;;;;;;;;103054;1331;39692;-47
2023/01/19 10:32:57;;;;;;;7.60;6.00;;;;;;;;;;102895;1330;41755;-39
2023/01/19 10:35:31;;;;;;;7.60;6.00;;;;;;;;;;102752;1334;44495;-39
2023/01/19 10:38:08;;;;;;;9.10;6.20;;;;;;;;;;102783;1334;42827;-42
2023/01/19 10:40:50;;;;;;;8.20;5.90;;;;;;;;;;102762;1334;40880;-41
2023/01/19 10:43:40;;;;;;;7.60;5.60;;;;;;;;;;102931;1331;42458;-37
2023/01/19 10:46:24;;;;;;;7.90;6.10;;;;;;;;;;103107;1331;44303;-39
2023/01/19 10:48:55;;;;;;;8.40;6.20;;;;;;;;;;103219;1327;43042;-40
2023/01/19 10:51:26;;;;;;;7.00;5.70;;;;;;;;;;103246;1327;39598;-41
2023/01/19 10:54:00;;;;;;;9.10;6.70;;;;;;;;;;102916;1331;40944;-39
2023/01/19 10:56:37;;;;;;;7.50;5.80;;;;;;;;;;102810;1331;44254;-40
2023/01/19 10:59:32;;;;;;;7.70;6.00;;;;;;;;;;102787;1334;43398;-38
2023/01/19 11:02:18;;;;;;;8.20;6.00;;;;;;;;;;102780;1334;39786;-37
2023/01/19 11:04:52;;;;;;;7.60;5.80;;;;;;;;;;102918;1334;47270;-37
2023/01/19 11:07:28;;;;;;;7.10;5.60;;;;;;;;;;102782;1334;44254;-41
2023/01/19 11:10:22;;;;;;;7.50;5.70;;;;;;;;;;102793;1333;42946;-41
2023/01/19 11:13:02;;;;;;;8.30;6.30;;;;;;;;;;102807;1327;39567;-42
2023/01/19 11:15:42;;;;;;;8.50;6.00;;;;;;;;;;103277;1327;42417;-38
2023/01/19 11:18:29;;;;;;;8.20;5.90;;;;;;;;;;103207;1336;44400;-39
2023/01/19 11:21:02;;;;;;;7.30;5.90;;;;;;;;;;103314;1327;43173;-39
2023/01/19 11:23:49;;;;;;;7.10;5.80;;;;;;;;;;103064;1328;39447;-38
2023/01/19 11:26:30;;;;;;;8.50;5.80;;;;;;;;;;102781;1331;41223;-41
2023/01/19 11:29:05;;;;;;;8.60;6.20;;;;;;;;;;102728;1331;45020;-39
2023/01/19 11:31:45;;;;;;;8.60;6.10;;;;;;;;;;102773;1331;42714;-40
2023/01/19 11:34:35;;;;;;;7.40;5.80;;;;;;;;;;102905;1330;39537;-40
2023/01/19 11:37:29;;;;;;;8.30;6.10;;;;;;;;;;103046;1331;41107;-39
2023/01/19 11:40:11;;;;;;;7.80;5.90;;;;;;;;;;103091;1330;44022;-39
2023/01/19 11:42:46;;;;;;;8.30;6.20;;;;;;;;;;103075;1331;42704;-42
2023/01/19 11:45:19;;;;;;;7.50;6.00;;;;;;;;;;102784;1333;39570;-43
2023/01/19 11:47:51;;;;;;;7.50;6.10;;;;;;;;;;102774;1333;41922;-39
2023/01/19 11:50:24;;;;;;;;;;;;;;;;;;102699;1334;175691;-38
2023/01/19 11:52:59;;;;;;;7.70;5.80;;;;;;;;;;102793;1333;43753;-41
2023/01/19 11:55:39;;;;;;;8.70;6.30;;;;;;;;;;103021;1330;39848;-39
2023/01/19 11:58:16;;;;;;;7.60;6.20;;;;;;;;;;102420;1337;895802;-38
2023/01/19 12:00:56;;;;;;;7.50;6.00;;;;;;;;;;103056;1331;44035;-40
2023/01/19 12:03:34;;;;;;;7.80;5.90;;;;;;;;;;102937;1331;196957;-38
2023/01/19 12:06:15;;;;;;;7.50;6.20;;;;;;;;;;102883;1333;44772;-36
2023/01/19 12:08:59;;;;;;;8.30;6.30;;;;;;;;;;102765;1334;41064;-36
2023/01/19 12:11:44;;;;;;;8.10;6.30;;;;;;;;;;102771;1333;45650;-39
2023/01/19 12:14:26;;;;;;;8.80;6.40;;;;;;;;;;102873;1327;42933;-40
2023/01/19 12:17:07;;;;;;;8.00;6.20;;;;;;;;;;103228;1327;40736;-40
2023/01/19 12:19:51;;;;;;;8.50;6.10;;;;;;;;;;103247;1327;41347;-41
2023/01/19 12:22:29;;;;;;;8.00;6.20;;;;;;;;;;103217;1327;44400;-41
2023/01/19 12:25:05;;;;;;;7.50;6.20;;;;;;;;;;103092;1331;42983;-39
2023/01/19 12:27:40;;;;;;;7.90;6.00;;;;;;;;;;102806;1331;39622;-38
2023/01/19 12:30:19;;;;;;;8.00;6.20;;;;;;;;;;102802;1334;41263;-39
2023/01/19 12:32:50;;;;;;;8.20;6.60;;;;;;;;;;102770;1344;44254;-39
2023/01/19 12:36:04;;;;;;;9.10;6.20;;;;;;;;;;102924;1327;43095;-39
2023/01/19 12:38:46;;;;;;;8.10;6.60;;;;;;;;;;102992;1327;39744;-39
2023/01/19 12:41:31;;;;;;;7.50;5.90;;;;;;;;;;103258;1327;41491;-39
2023/01/19 12:44:29;;;;;;;8.30;6.20;;;;;;;;;;103256;1328;44317;-38
2023/01/19 12:47:18;;;;;;;8.20;6.30;;;;;;;;;;102501;1340;290022;-38
2023/01/19 12:49:55;;;;;;;8.10;6.20;;;;;;;;;;103262;1327;39649;-39
2023/01/19 12:52:33;;;;;;;7.70;6.40;;;;;;;;;;103066;1328;41370;-40
2023/01/19 12:55:32;;;;;;;9.00;6.50;;;;;;;;;;102935;1327;44205;-43
2023/01/19 12:58:07;;;;;;;7.80;6.10;;;;;;;;;;103481;1327;43031;-42
2023/01/19 13:00:41;;;;;;;8.30;6.60;;;;;;;;;;103316;1328;39518;-38
2023/01/19 13:04:00;;;;;;;8.30;6.40;;;;;;;;;;103283;1328;175752;-39
2023/01/19 13:07:18;;;;;;;8.30;6.60;;;;;;;;;;103473;1325;45282;-39
2023/01/19 13:09:53;;;;;;;9.20;6.50;;;;;;;;;;103433;1327;43813;-38
2023/01/19 13:12:33;;;;;;;9.00;6.90;;;;;;;;;;103462;1326;39513;-40
2023/01/19 13:15:45;;;;;;;8.60;6.70;;;;;;;;;;103459;1328;41160;-38
2023/01/19 13:18:20;;;;;;;9.90;7.00;;;;;;;;;;102431;1336;51706;-39
2023/01/19 13:20:59;;;;;;;8.30;6.70;;;;;;;;;;102466;1336;43083;-42
2023/01/19 13:23:54;;;;;;;8.00;6.50;;;;;;;;;;102764;1328;175762;-39
2023/01/19 13:26:31;;;;;;;8.00;6.50;;;;;;;;;;103356;1328;41319;-41
2023/01/19 13:29:15;;;;;;;8.50;6.80;;;;;;;;;;102894;1331;44627;-41
2023/01/19 13:31:55;;;;;;;8.00;6.70;;;;;;;;;;103251;1328;43325;-40
2023/01/19 13:34:35;;;;;;;7.60;6.40;;;;;;;;;;102872;1327;40731;-37
2023/01/19 13:37:18;;;;;;;8.40;6.50;;;;;;;;;;103367;1326;42176;-38
2023/01/19 13:39:58;;;;;;;9.50;6.50;;;;;;;;;;103457;1327;43842;-40
2023/01/19 13:42:40;;;;;;;8.70;6.70;;;;;;;;;;103406;1328;43934;-39
2023/01/19 13:45:26;;;;;;;8.00;6.50;;;;;;;;;;103307;1327;39513;-39
2023/01/19 13:48:04;;;;;;;8.60;6.80;;;;;;;;;;103247;1327;42370;-37
2023/01/19 13:50:38;;;;;;;8.50;6.40;;;;;;;;;;103241;1327;45612;-37
2023/01/19 13:53:19;;;;;;;8.40;6.90;;;;;;;;;;103326;1327;42381;-41
2023/01/19 13:56:07;;;;;;;8.50;7.00;;;;;;;;;;103464;1328;40792;-37
2023/01/19 13:58:40;;;;;;;8.10;6.90;;;;;;;;;;103134;1327;41310;-39
2023/01/19 14:01:26;;;;;;;8.00;6.40;;;;;;;;;;103454;1327;44427;-37
2023/01/19 14:03:59;;;;;;;8.90;6.90;;;;;;;;;;103424;1327;42925;-39
2023/01/19 14:06:39;;;;;;;8.40;7.10;;;;;;;;;;103470;1327;39576;-37
2023/01/19 14:09:16;;;;;;;8.30;6.90;;;;;;;;;;102986;1329;40986;-40
2023/01/19 14:12:05;;;;;;;8.80;6.80;;;;;;;;;;103335;1327;44068;-37
2023/01/19 14:14:36;;;;;;;8.80;7.10;;;;;;;;;;102272;1326;894104;-37
2023/01/19 14:17:24;;;;;;;8.00;6.60;;;;;;;;;;103309;1331;39732;-37
2023/01/19 14:20:00;;;;;;;8.90;7.10;;;;;;;;;;103449;1327;48028;-39
2023/01/19 14:22:42;;;;;;;8.60;7.10;;;;;;;;;;103232;1327;44284;-41
2023/01/19 14:25:31;;;;;;;9.10;7.10;;;;;;;;;;103360;1327;43172;-39
2023/01/19 14:28:34;;;;;;;8.10;6.90;;;;;;;;;;103273;1328;39527;-39
2023/01/19 14:31:19;;;;;;;8.60;6.80;;;;;;;;;;102786;1340;41346;-38
2023/01/19 14:33:52;;;;;;;8.70;6.90;;;;;;;;;;102788;1331;44449;-39
2023/01/19 14:36:32;;;;;;;9.00;7.50;;;;;;;;;;102747;1334;43491;-39
2023/01/19 14:39:22;;;;;;;8.40;6.80;;;;;;;;;;103139;1326;39610;-39
2023/01/19 14:42:03;;;;;;;8.40;6.70;;;;;;;;;;103454;1328;41557;-38
2023/01/19 14:44:42;;;;;;;8.50;6.90;;;;;;;;;;103429;1328;44518;-37
2023/01/19 14:47:30;;;;;;;8.50;6.90;;;;;;;;;;103458;1327;44406;-37
2023/01/19 14:50:06;;;;;;;8.20;6.80;;;;;;;;;;102959;1331;39776;-37
2023/01/19 14:52:40;;;;;;;8.30;6.80;;;;;;;;;;103173;1326;41225;-37
2023/01/19 14:55:21;;;;;;;9.40;7.20;;;;;;;;;;103140;1334;44701;-38
2023/01/19 14:57:52;;;;;;;7.50;6.40;;;;;;;;;;102752;1333;43041;-39
2023/01/19 15:00:26;;;;;;;8.80;7.00;;;;;;;;;;103171;1327;39682;-40
2023/01/19 15:02:59;;;;;;;8.70;7.10;;;;;;;;;;103334;1327;41248;-40
2023/01/19 15:05:29;;;;;;;8.30;6.90;;;;;;;;;;103468;1327;44226;-39
2023/01/19 15:08:05;;;;;;;8.40;7.10;;;;;;;;;;103484;1327;43084;-39
2023/01/19 15:10:36;;;;;;;8.60;7.10;;;;;;;;;;103340;1326;39453;-43
2023/01/19 15:13:08;;;;;;;8.30;7.10;;;;;;;;;;103204;1327;41760;-43
2023/01/19 15:15:45;;;;;;;9.20;7.40;;;;;;;;;;103253;1327;45205;-44
2023/01/19 15:18:24;;;;;;;8.50;7.30;;;;;;;;;;103117;1327;175364;-41
2023/01/19 15:21:01;;;;;;;8.60;6.90;;;;;;;;;;103531;1328;46018;-42
2023/01/19 15:23:31;;;;;;;8.90;7.40;;;;;;;;;;103486;1327;41345;-41
2023/01/19 15:26:06;;;;;;;9.10;7.50;;;;;;;;;;103499;1327;46416;-39
2023/01/19 15:28:40;;;;;;;8.90;7.20;;;;;;;;;;103447;1328;42874;-39
2023/01/19 15:31:15;;;;;;;8.50;7.20;;;;;;;;;;102589;1334;46257;-39
2023/01/19 15:33:45;;;;;;;9.10;7.30;;;;;;;;;;102779;1334;42447;-40